createdAt,value
2023-02-22T00:01:19.232Z,20.95
2023-02-22T00:03:52.096Z,22.67
2023-02-22T00:06:25.008Z,31.75
2023-02-22T00:08:55.793Z,24.88
2023-02-22T00:11:24.939Z,19.55
2023-02-22T00:13:57.398Z,12.23
2023-02-22T00:16:28.554Z,12.80
2023-02-22T00:18:57.309Z,12.63
2023-02-22T00:21:25.892Z,16.08
2023-02-22T00:23:55.481Z,11.85
2023-02-22T00:26:24.457Z,13.68
2023-02-22T00:28:54.407Z,12.07
2023-02-22T00:31:23.736Z,17.02
2023-02-22T00:33:53.815Z,13.68
2023-02-22T00:36:22.616Z,14.68
2023-02-22T00:38:51.246Z,11.38
2023-02-22T00:41:20.060Z,15.55
2023-02-22T00:43:49.472Z,15.23
2023-02-22T00:46:18.293Z,14.93
2023-02-22T00:48:47.496Z,12.75
2023-02-22T00:51:17.759Z,12.70
2023-02-22T00:53:46.500Z,9.88
2023-02-22T00:56:15.198Z,15.07
2023-02-22T00:58:44.595Z,13.43
2023-02-22T01:01:13.370Z,7.97
2023-02-22T01:03:42.130Z,10.73
2023-02-22T01:06:11.062Z,12.55
2023-02-22T01:08:44.585Z,13.35
2023-02-22T01:11:13.594Z,8.75
2023-02-22T01:13:45.253Z,11.20
2023-02-22T01:16:13.991Z,11.55
2023-02-22T01:18:42.887Z,10.65
2023-02-22T01:21:11.983Z,13.13
2023-02-22T01:23:46.308Z,10.70
2023-02-22T01:26:15.107Z,9.23
2023-02-22T01:28:43.710Z,11.82
2023-02-22T01:31:12.533Z,12.40
2023-02-22T01:33:42.435Z,10.07
2023-02-22T01:36:11.419Z,8.90
2023-02-22T01:38:40.325Z,8.55
2023-02-22T01:41:10.474Z,10.45
2023-02-22T01:43:39.254Z,12.23
2023-02-22T01:46:18.157Z,12.55
2023-02-22T01:48:49.066Z,10.65
2023-02-22T01:51:20.794Z,10.02
2023-02-22T01:53:52.829Z,10.73
2023-02-22T01:56:24.426Z,13.18
2023-02-22T01:58:56.400Z,11.45
2023-02-22T02:01:26.334Z,10.05
2023-02-22T02:03:58.610Z,10.85
2023-02-22T02:06:27.537Z,13.30
2023-02-22T02:09:00.959Z,11.27
2023-02-22T02:11:33.094Z,10.23
2023-02-22T02:14:01.949Z,12.05
2023-02-22T02:16:39.260Z,9.32
2023-02-22T02:19:11.755Z,11.02
2023-02-22T02:22:09.313Z,11.38
2023-02-22T02:24:59.172Z,8.15
2023-02-22T02:27:35.073Z,11.32
2023-02-22T02:30:26.485Z,11.25
2023-02-22T02:32:58.880Z,14.32
2023-02-22T02:35:35.415Z,10.60
2023-02-22T02:38:11.656Z,12.15
2023-02-22T02:40:47.468Z,12.00
2023-02-22T02:43:19.107Z,15.05
2023-02-22T02:45:50.951Z,12.65
2023-02-22T02:48:24.849Z,8.10
2023-02-22T02:50:54.651Z,10.13
2023-02-22T02:53:26.466Z,12.23
2023-02-22T02:55:55.293Z,10.52
2023-02-22T02:58:24.785Z,15.48
2023-02-22T03:00:58.453Z,10.82
2023-02-22T03:03:47.744Z,12.90
2023-02-22T03:06:49.154Z,12.70
2023-02-22T03:09:25.794Z,13.55
2023-02-22T03:12:02.093Z,16.05
2023-02-22T03:14:38.880Z,13.52
2023-02-22T03:17:16.129Z,16.95
2023-02-22T03:19:48.994Z,14.27
2023-02-22T03:22:23.708Z,18.30
2023-02-22T03:24:58.891Z,14.60
2023-02-22T03:27:29.932Z,15.45
2023-02-22T03:30:04.722Z,13.95
2023-02-22T03:32:38.006Z,17.23
2023-02-22T03:35:10.957Z,18.10
2023-02-22T03:37:43.028Z,16.40
2023-02-22T03:40:15.370Z,29.10
2023-02-22T03:42:50.016Z,20.40
2023-02-22T03:45:21.239Z,14.40
2023-02-22T03:47:53.042Z,16.17
2023-02-22T03:50:26.648Z,14.82
2023-02-22T03:52:55.466Z,17.40
2023-02-22T03:55:29.080Z,14.55
2023-02-22T03:58:00.530Z,14.18
2023-02-22T04:00:33.780Z,14.27
2023-02-22T04:03:03.678Z,20.85
2023-02-22T04:05:33.858Z,12.13
2023-02-22T04:08:03.424Z,20.92
2023-02-22T04:10:33.524Z,15.73
2023-02-22T04:13:02.183Z,15.82
2023-02-22T04:15:31.430Z,19.38
2023-02-22T04:18:05.764Z,16.50
2023-02-22T04:20:36.081Z,16.08
2023-02-22T04:23:10.991Z,16.55
2023-02-22T04:25:41.786Z,18.02
2023-02-22T04:28:13.729Z,11.38
2023-02-22T04:30:47.244Z,14.82
2023-02-22T04:33:18.336Z,18.00
2023-02-22T04:35:49.269Z,17.35
2023-02-22T04:38:18.448Z,11.73
2023-02-22T04:40:47.100Z,25.23
2023-02-22T04:43:16.596Z,24.55
2023-02-22T04:45:45.297Z,12.75
2023-02-22T04:48:13.919Z,11.45
2023-02-22T04:50:42.724Z,11.57
2023-02-22T04:53:12.605Z,14.15
2023-02-22T04:55:41.255Z,14.02
2023-02-22T04:58:10.505Z,11.25
2023-02-22T05:00:39.699Z,12.98
2023-02-22T05:03:09.738Z,13.85
2023-02-22T05:05:38.289Z,15.35
2023-02-22T05:08:07.631Z,10.23
2023-02-22T05:10:37.569Z,14.35
2023-02-22T05:13:06.475Z,9.32
2023-02-22T05:15:35.003Z,12.60
2023-02-22T05:18:03.830Z,16.10
2023-02-22T05:20:35.200Z,12.20
2023-02-22T05:23:05.472Z,15.65
2023-02-22T05:25:36.305Z,11.98
2023-02-22T05:28:07.096Z,11.88
2023-02-22T05:30:39.672Z,13.95
2023-02-22T05:33:08.581Z,11.82
2023-02-22T05:35:38.068Z,13.90
2023-02-22T05:38:06.785Z,9.75
2023-02-22T05:40:36.756Z,16.35
2023-02-22T05:43:05.545Z,20.35
2023-02-22T05:45:34.229Z,12.95
2023-02-22T05:48:03.147Z,12.68
2023-02-22T05:50:33.060Z,11.68
2023-02-22T05:53:02.112Z,11.38
2023-02-22T05:55:30.752Z,10.90
2023-02-22T05:58:01.646Z,12.23
2023-02-22T06:00:31.711Z,9.75
2023-02-22T06:03:01.880Z,14.55
2023-02-22T06:05:31.089Z,19.40
2023-02-22T06:08:00.141Z,13.07
2023-02-22T06:10:29.293Z,13.35
2023-02-22T06:12:58.319Z,9.35
2023-02-22T06:15:29.220Z,10.20
2023-02-22T06:18:00.093Z,12.02
2023-02-22T06:20:30.062Z,13.85
2023-02-22T06:22:59.539Z,13.20
2023-02-22T06:25:31.182Z,12.52
2023-02-22T06:28:00.262Z,10.77
2023-02-22T06:30:30.942Z,14.20
2023-02-22T06:32:59.656Z,11.60
2023-02-22T06:35:28.329Z,14.45
2023-02-22T06:37:56.983Z,11.35
2023-02-22T06:40:29.369Z,15.95
2023-02-22T06:42:58.346Z,12.43
2023-02-22T06:45:27.266Z,13.80
2023-02-22T06:47:57.177Z,14.98
2023-02-22T06:50:28.781Z,13.43
2023-02-22T06:52:57.803Z,17.80
2023-02-22T06:55:28.592Z,11.45
2023-02-22T06:57:57.351Z,13.93
2023-02-22T07:00:27.238Z,13.88
2023-02-22T07:02:57.965Z,17.20
2023-02-22T07:05:27.871Z,11.95
2023-02-22T07:08:02.606Z,9.32
2023-02-22T07:10:33.397Z,17.85
2023-02-22T07:13:02.069Z,12.55
2023-02-22T07:15:33.625Z,17.10
2023-02-22T07:18:03.666Z,17.85
2023-02-22T07:20:32.851Z,14.95
2023-02-22T07:23:02.050Z,16.52
2023-02-22T07:25:30.791Z,12.95
2023-02-22T07:27:59.695Z,15.85
2023-02-22T07:30:31.231Z,16.73
2023-02-22T07:33:02.235Z,17.48
2023-02-22T07:35:32.305Z,17.95
2023-02-22T07:38:01.327Z,15.40
2023-02-22T07:40:30.575Z,18.08
2023-02-22T07:43:00.749Z,14.73
2023-02-22T07:45:30.659Z,15.50
2023-02-22T07:48:00.168Z,20.40
2023-02-22T07:50:32.196Z,20.88
2023-02-22T07:53:03.024Z,19.33
2023-02-22T07:55:32.947Z,16.10
2023-02-22T07:58:02.966Z,21.35
2023-02-22T08:00:33.362Z,13.88
2023-02-22T08:03:02.870Z,21.23
2023-02-22T08:05:34.412Z,17.83
2023-02-22T08:08:03.274Z,25.17
2023-02-22T08:10:32.100Z,20.45
2023-02-22T08:13:00.905Z,14.95
2023-02-22T08:15:31.951Z,20.48
2023-02-22T08:18:01.169Z,26.50
2023-02-22T08:20:32.626Z,24.38
2023-02-22T08:23:01.245Z,21.77
2023-02-22T08:25:31.545Z,16.25
2023-02-22T08:28:01.775Z,20.40
2023-02-22T08:30:31.767Z,22.00
2023-02-22T08:33:02.720Z,26.27
2023-02-22T08:35:33.683Z,21.75
2023-02-22T08:38:05.244Z,23.33
2023-02-22T08:40:35.526Z,19.40
2023-02-22T08:43:05.156Z,24.58
2023-02-22T08:45:33.888Z,21.23
2023-02-22T08:48:02.631Z,16.88
2023-02-22T08:50:34.078Z,25.58
2023-02-22T08:53:04.058Z,21.20
2023-02-22T08:55:33.881Z,20.83
2023-02-22T08:58:03.800Z,23.48
2023-02-22T09:00:33.887Z,18.52
2023-02-22T09:03:02.987Z,20.15
2023-02-22T09:05:32.198Z,16.67
2023-02-22T09:08:02.537Z,22.23
2023-02-22T09:10:34.730Z,17.23
2023-02-22T09:13:04.055Z,21.08
2023-02-22T09:15:34.029Z,20.27
2023-02-22T09:18:02.891Z,16.83
2023-02-22T09:20:31.807Z,21.40
2023-02-22T09:23:02.976Z,17.35
2023-02-22T09:25:31.777Z,18.20
2023-02-22T09:28:00.503Z,15.00
2023-02-22T09:30:32.367Z,22.23
2023-02-22T09:33:03.311Z,18.50
2023-02-22T09:35:36.146Z,21.08
2023-02-22T09:38:07.412Z,37.05
2023-02-22T09:40:44.753Z,21.67
2023-02-22T09:43:35.775Z,16.35
2023-02-22T09:46:20.537Z,16.65
2023-02-22T09:49:07.724Z,14.50
2023-02-22T09:51:41.269Z,13.70
2023-02-22T09:54:19.376Z,13.57
2023-02-22T09:56:49.917Z,15.75
2023-02-22T09:59:23.705Z,14.68
2023-02-22T10:01:59.269Z,19.85
2023-02-22T10:04:35.616Z,14.85
2023-02-22T10:07:11.340Z,13.98
2023-02-22T10:09:43.596Z,12.68
2023-02-22T10:12:15.427Z,21.98
2023-02-22T10:15:27.928Z,12.43
2023-02-22T10:18:03.387Z,15.45
2023-02-22T10:20:44.118Z,14.95
2023-02-22T10:23:19.868Z,18.15
2023-02-22T10:25:53.792Z,12.63
2023-02-22T10:28:25.270Z,19.25
2023-02-22T10:30:59.042Z,21.88
2023-02-22T10:33:32.163Z,28.23
2023-02-22T10:36:01.158Z,12.65
2023-02-22T10:38:34.576Z,16.77
2023-02-22T10:41:20.372Z,14.13
2023-02-22T10:43:48.996Z,14.13
2023-02-22T10:46:21.569Z,13.45
2023-02-22T10:48:52.826Z,13.23
2023-02-22T10:51:21.636Z,14.13
2023-02-22T10:53:59.841Z,59.45
2023-02-22T10:56:30.397Z,24.38
2023-02-22T10:59:02.373Z,16.02
2023-02-22T11:01:37.646Z,18.35
2023-02-22T11:04:12.300Z,18.42
2023-02-22T11:06:42.522Z,14.32
2023-02-22T11:09:14.154Z,14.20
2023-02-22T11:11:46.272Z,14.63
2023-02-22T11:14:26.009Z,16.40
2023-02-22T11:17:01.356Z,17.40
2023-02-22T11:19:31.267Z,11.23
2023-02-22T11:22:10.284Z,21.02
2023-02-22T11:24:49.283Z,17.50
2023-02-22T11:27:32.365Z,16.50
2023-02-22T11:30:20.617Z,19.38
2023-02-22T11:32:51.022Z,19.33
2023-02-22T11:35:40.860Z,13.40
2023-02-22T11:38:28.352Z,17.20
2023-02-22T11:41:11.173Z,14.10
2023-02-22T11:43:41.740Z,18.10
2023-02-22T11:46:14.878Z,30.25
2023-02-22T11:48:48.510Z,14.38
2023-02-22T11:51:22.353Z,27.73
2023-02-22T11:54:13.287Z,15.65
2023-02-22T11:56:46.265Z,20.35
2023-02-22T11:59:26.453Z,17.90
2023-02-22T12:01:59.953Z,23.17
2023-02-22T12:04:56.282Z,17.65
2023-02-22T12:07:42.203Z,34.70
2023-02-22T12:10:21.046Z,16.10
2023-02-22T12:13:01.741Z,16.55
2023-02-22T12:15:35.981Z,11.98
2023-02-22T12:18:10.093Z,14.40
2023-02-22T12:20:40.907Z,14.98
2023-02-22T12:23:19.558Z,15.43
2023-02-22T12:25:58.632Z,14.02
2023-02-22T12:28:34.781Z,21.17
2023-02-22T12:31:13.166Z,19.15
2023-02-22T12:33:50.527Z,14.82
2023-02-22T12:36:22.009Z,16.58
2023-02-22T12:38:54.180Z,15.60
2023-02-22T12:41:28.918Z,14.63
2023-02-22T12:46:31.973Z,15.20
2023-02-22T12:49:15.859Z,16.13
2023-02-22T12:51:49.642Z,14.60
2023-02-22T12:54:23.495Z,12.80
2023-02-22T12:56:55.806Z,15.07
2023-02-22T12:59:31.042Z,12.02
2023-02-22T13:02:06.268Z,19.35
2023-02-22T13:04:36.949Z,13.75
2023-02-22T13:07:15.371Z,11.68
2023-02-22T13:10:09.659Z,13.00
2023-02-22T13:12:42.281Z,13.77
2023-02-22T13:15:18.552Z,16.00
2023-02-22T13:17:55.396Z,15.43
2023-02-22T13:20:27.964Z,13.35
2023-02-22T13:23:02.631Z,8.77
2023-02-22T13:25:38.160Z,17.33
2023-02-22T13:28:23.251Z,14.73
2023-02-22T13:33:39.617Z,14.98
2023-02-22T13:36:23.736Z,20.42
2023-02-22T13:39:32.958Z,16.40
2023-02-22T13:42:27.131Z,13.15
2023-02-22T13:45:28.696Z,13.15
2023-02-22T13:48:18.368Z,12.13
2023-02-22T13:51:04.899Z,12.45
2023-02-22T13:53:43.652Z,13.20
2023-02-22T13:56:12.746Z,10.02
2023-02-22T13:58:54.975Z,9.70
2023-02-22T14:01:45.651Z,13.75
2023-02-22T14:04:45.822Z,13.93
2023-02-22T14:07:57.143Z,11.68
2023-02-22T14:10:50.120Z,12.63
2023-02-22T14:13:20.001Z,15.93
2023-02-22T14:16:20.115Z,15.45
2023-02-22T14:18:51.132Z,16.45
2023-02-22T14:21:21.535Z,12.57
2023-02-22T14:23:51.329Z,15.55
2023-02-22T14:26:28.930Z,14.30
2023-02-22T14:28:59.853Z,13.20
2023-02-22T14:31:36.432Z,14.07
2023-02-22T14:34:10.890Z,14.38
2023-02-22T14:36:52.691Z,15.52
2023-02-22T14:39:25.464Z,15.70
2023-02-22T14:42:01.433Z,14.15
2023-02-22T14:44:35.899Z,17.05
2023-02-22T14:47:08.193Z,14.02
2023-02-22T14:49:46.100Z,14.40
2023-02-22T14:52:22.754Z,16.45
2023-02-22T14:54:59.847Z,17.08
2023-02-22T14:57:38.847Z,19.55
2023-02-22T15:00:21.054Z,20.50
2023-02-22T15:02:52.244Z,17.55
2023-02-22T15:05:21.741Z,16.95
2023-02-22T15:07:55.675Z,23.23
2023-02-22T15:10:29.701Z,26.65
2023-02-22T15:13:10.495Z,19.60
2023-02-22T15:15:47.502Z,18.30
2023-02-22T15:18:23.483Z,16.27
2023-02-22T15:20:56.223Z,19.05
2023-02-22T15:23:33.220Z,17.98
2023-02-22T15:26:02.661Z,18.23
2023-02-22T15:28:32.926Z,16.77
2023-02-22T15:31:25.689Z,24.67
2023-02-22T15:33:55.417Z,18.45
2023-02-22T15:36:27.997Z,20.52
2023-02-22T15:38:57.080Z,20.42
2023-02-22T15:41:30.058Z,25.95
2023-02-22T15:44:08.024Z,22.52
2023-02-22T15:46:42.827Z,21.30
2023-02-22T15:49:24.142Z,23.35
2023-02-22T15:52:04.065Z,19.00
2023-02-22T15:54:40.019Z,16.33
2023-02-22T15:57:09.367Z,19.05
2023-02-22T15:59:45.479Z,17.25
2023-02-22T16:02:33.406Z,24.13
2023-02-22T16:05:05.173Z,27.02
2023-02-22T16:07:34.321Z,14.52
2023-02-22T16:10:09.064Z,16.90
2023-02-22T16:15:17.631Z,17.23
2023-02-22T16:18:00.914Z,17.17
2023-02-22T16:20:36.267Z,19.55
2023-02-22T16:23:23.085Z,17.67
2023-02-22T16:26:07.404Z,18.13
2023-02-22T16:28:36.175Z,18.53
2023-02-22T16:31:06.338Z,25.40
2023-02-22T16:33:35.083Z,17.63
2023-02-22T16:36:08.503Z,19.38
2023-02-22T16:38:39.208Z,16.00
2023-02-22T16:41:08.634Z,16.52
2023-02-22T16:43:37.619Z,20.63
2023-02-22T16:46:08.625Z,23.67
2023-02-22T16:48:38.546Z,18.10
2023-02-22T16:51:18.324Z,17.20
2023-02-22T16:53:47.155Z,20.02
2023-02-22T16:56:17.874Z,19.98
2023-02-22T16:58:47.663Z,16.02
2023-02-22T17:01:18.285Z,21.17
2023-02-22T17:03:47.884Z,24.92
2023-02-22T17:06:17.270Z,19.80
2023-02-22T17:08:46.354Z,23.35
2023-02-22T17:11:16.680Z,20.40
2023-02-22T17:13:47.190Z,16.95
2023-02-22T17:16:17.694Z,31.25
2023-02-22T17:18:46.841Z,17.33
2023-02-22T17:21:16.657Z,20.90
2023-02-22T17:23:46.229Z,18.38
2023-02-22T17:26:16.875Z,28.05
2023-02-22T17:28:46.023Z,25.52
2023-02-22T17:31:22.499Z,20.88
2023-02-22T17:33:52.366Z,24.27
2023-02-22T17:36:23.566Z,27.42
2023-02-22T17:38:52.373Z,23.33
2023-02-22T17:41:20.951Z,19.58
2023-02-22T17:43:50.628Z,21.13
2023-02-22T17:46:21.003Z,17.08
2023-02-22T17:48:49.775Z,23.55
2023-02-22T17:51:18.418Z,21.23
2023-02-22T17:53:47.057Z,21.90
2023-02-22T17:56:18.705Z,22.98
2023-02-22T17:58:49.556Z,21.73
2023-02-22T18:01:27.105Z,22.92
2023-02-22T18:03:57.406Z,23.63
2023-02-22T18:06:28.457Z,31.15
2023-02-22T18:08:58.346Z,28.33
2023-02-22T18:11:28.547Z,21.67
2023-02-22T18:13:58.119Z,20.70
2023-02-22T18:16:28.244Z,21.50
2023-02-22T18:18:58.088Z,27.20
2023-02-22T18:21:27.430Z,24.73
2023-02-22T18:23:56.171Z,23.10
2023-02-22T18:26:26.009Z,20.60
2023-02-22T18:28:55.077Z,27.38
2023-02-22T18:31:24.840Z,19.17
2023-02-22T18:33:54.884Z,21.40
2023-02-22T18:36:24.379Z,21.45
2023-02-22T18:38:54.180Z,22.23
2023-02-22T18:41:26.264Z,21.77
2023-02-22T18:43:57.529Z,21.77
2023-02-22T18:46:26.398Z,28.08
2023-02-22T18:48:57.286Z,20.08
2023-02-22T18:51:30.530Z,22.92
2023-02-22T18:54:01.127Z,19.95
2023-02-22T18:56:30.983Z,20.50
2023-02-22T18:59:01.792Z,20.25
2023-02-22T19:01:31.384Z,19.70
2023-02-22T19:04:02.252Z,24.95
2023-02-22T19:06:31.003Z,31.33
2023-02-22T19:09:02.014Z,18.52
2023-02-22T19:11:31.338Z,24.95
2023-02-22T19:14:00.259Z,18.98
2023-02-22T19:16:29.323Z,28.20
2023-02-22T19:18:59.978Z,24.63
2023-02-22T19:21:30.219Z,19.60
2023-02-22T19:24:05.441Z,24.73
2023-02-22T19:26:34.361Z,17.95
2023-02-22T19:29:06.281Z,23.40
2023-02-22T19:31:35.433Z,29.58
2023-02-22T19:34:09.061Z,29.65
2023-02-22T19:36:39.365Z,28.30
2023-02-22T19:39:08.106Z,21.70
2023-02-22T19:41:36.813Z,31.52
2023-02-22T19:44:06.044Z,26.30
2023-02-22T19:46:35.330Z,20.52
2023-02-22T19:49:06.063Z,24.83
2023-02-22T19:51:34.850Z,20.10
2023-02-22T19:54:05.182Z,28.63
2023-02-22T19:56:35.490Z,23.40
2023-02-22T19:59:09.400Z,25.05
2023-02-22T20:01:38.844Z,25.17
2023-02-22T20:04:11.679Z,26.80
2023-02-22T20:06:42.666Z,21.55
2023-02-22T20:09:15.905Z,28.52
2023-02-22T20:11:44.843Z,31.75
2023-02-22T20:14:18.395Z,31.40
2023-02-22T20:16:47.666Z,24.17
2023-02-22T20:19:18.044Z,26.58
2023-02-22T20:21:46.976Z,23.42
2023-02-22T20:24:20.199Z,27.48
2023-02-22T20:26:49.853Z,19.13
2023-02-22T20:29:19.265Z,25.75
2023-02-22T20:31:52.488Z,23.70
2023-02-22T20:34:25.107Z,35.30
2023-02-22T20:36:55.185Z,30.60
2023-02-22T20:39:23.864Z,23.60
2023-02-22T20:41:52.659Z,22.80
2023-02-22T20:44:23.605Z,21.30
2023-02-22T20:46:52.271Z,25.27
2023-02-22T20:49:22.492Z,32.70
2023-02-22T20:51:51.095Z,26.92
2023-02-22T20:54:19.899Z,22.30
2023-02-22T20:56:50.692Z,25.63
2023-02-22T20:59:21.389Z,44.05
2023-02-22T21:01:53.008Z,39.20
2023-02-22T21:04:23.390Z,30.05
2023-02-22T21:06:52.976Z,23.70
2023-02-22T21:09:22.860Z,23.63
2023-02-22T21:11:51.543Z,28.30
2023-02-22T21:14:20.354Z,27.98
2023-02-22T21:16:50.923Z,28.55
2023-02-22T21:19:25.418Z,29.15
2023-02-22T21:21:57.938Z,47.03
2023-02-22T21:24:27.736Z,37.72
2023-02-22T21:26:58.560Z,29.48
2023-02-22T21:29:27.444Z,29.15
2023-02-22T21:31:56.442Z,28.33
2023-02-22T21:34:26.211Z,29.92
2023-02-22T21:36:56.945Z,26.20
2023-02-22T21:39:28.593Z,24.98
2023-02-22T21:42:00.405Z,25.08
2023-02-22T21:44:30.528Z,31.08
2023-02-22T21:46:59.215Z,23.65
2023-02-22T21:49:28.913Z,26.58
2023-02-22T21:51:58.941Z,23.52
2023-02-22T21:54:28.780Z,26.27
2023-02-22T21:56:57.396Z,23.35
2023-02-22T21:59:26.013Z,28.17
2023-02-22T22:01:56.665Z,27.15
2023-02-22T22:04:27.991Z,26.70
2023-02-22T22:07:00.118Z,28.88
2023-02-22T22:09:33.150Z,26.77
2023-02-22T22:12:04.966Z,29.15
2023-02-22T22:14:34.398Z,27.77
2023-02-22T22:17:05.453Z,31.35
2023-02-22T22:19:39.381Z,31.05
2023-02-22T22:22:10.752Z,26.13
2023-02-22T22:24:41.705Z,29.83
2023-02-22T22:27:12.774Z,32.67
2023-02-22T22:29:43.402Z,26.15
2023-02-22T22:32:12.349Z,30.88
2023-02-22T22:34:42.521Z,28.80
2023-02-22T22:37:13.271Z,28.45
2023-02-22T22:39:42.495Z,52.65
2023-02-22T22:42:11.255Z,39.13
2023-02-22T22:44:41.948Z,31.25
2023-02-22T22:47:13.668Z,26.20
2023-02-22T22:49:42.711Z,24.75
2023-02-22T22:52:14.467Z,29.42
2023-02-22T22:54:44.473Z,29.30
2023-02-22T22:57:13.395Z,27.65
2023-02-22T22:59:41.991Z,23.90
2023-02-22T23:02:11.397Z,27.48
2023-02-22T23:04:40.190Z,24.58
2023-02-22T23:07:09.057Z,28.80
2023-02-22T23:09:39.516Z,27.92
2023-02-22T23:12:16.622Z,24.25
2023-02-22T23:14:47.116Z,33.03
2023-02-22T23:17:30.844Z,23.75
2023-02-22T23:19:59.661Z,27.55
2023-02-22T23:22:28.960Z,36.42
2023-02-22T23:25:00.953Z,30.35
2023-02-22T23:27:30.587Z,31.23
2023-02-22T23:29:59.256Z,29.17
2023-02-22T23:32:28.222Z,30.77
2023-02-22T23:34:56.894Z,28.60
2023-02-22T23:37:25.626Z,33.80
2023-02-22T23:39:54.299Z,24.35
2023-02-22T23:42:24.306Z,27.08
2023-02-22T23:44:53.700Z,30.27
2023-02-22T23:47:22.335Z,25.38
2023-02-22T23:49:50.962Z,31.50
2023-02-22T23:52:23.860Z,30.27
2023-02-22T23:54:53.879Z,35.45
2023-02-22T23:57:25.932Z,28.27
2023-02-22T23:59:54.650Z,34.80
